sensor_id;sensor_type;location;lat;lon;timestamp;P1;durP1;ratioP1;P2;durP2;ratioP2
44899;SDS011;30628;51.188;6.770;2022-08-25T00:01:55;5.93;;;2.42;;
44899;SDS011;30628;51.188;6.770;2022-08-25T00:04:24;2.90;;;2.60;;
44899;SDS011;30628;51.188;6.770;2022-08-25T00:06:51;2.70;;;2.50;;
44899;SDS011;30628;51.188;6.770;2022-08-25T00:09:21;4.63;;;2.90;;
44899;SDS011;30628;51.188;6.770;2022-08-25T00:11:52;3.60;;;2.40;;
44899;SDS011;30628;51.188;6.770;2022-08-25T00:14:21;3.25;;;2.65;;
44899;SDS011;30628;51.188;6.770;2022-08-25T00:16:52;3.25;;;2.53;;
44899;SDS011;30628;51.188;6.770;2022-08-25T00:19:21;4.13;;;3.00;;
44899;SDS011;30628;51.188;6.770;2022-08-25T00:21:52;2.83;;;2.40;;
44899;SDS011;30628;51.188;6.770;2022-08-25T00:24:19;2.67;;;2.47;;
44899;SDS011;30628;51.188;6.770;2022-08-25T00:26:48;4.35;;;2.65;;
44899;SDS011;30628;51.188;6.770;2022-08-25T00:29:16;3.40;;;2.53;;
44899;SDS011;30628;51.188;6.770;2022-08-25T00:31:43;2.85;;;2.10;;
44899;SDS011;30628;51.188;6.770;2022-08-25T00:34:11;4.07;;;2.30;;
44899;SDS011;30628;51.188;6.770;2022-08-25T00:36:42;3.60;;;2.60;;
44899;SDS011;30628;51.188;6.770;2022-08-25T00:39:08;3.65;;;2.67;;
44899;SDS011;30628;51.188;6.770;2022-08-25T00:41:36;3.67;;;2.50;;
44899;SDS011;30628;51.188;6.770;2022-08-25T00:44:05;2.70;;;2.50;;
44899;SDS011;30628;51.188;6.770;2022-08-25T00:46:41;2.95;;;2.67;;
44899;SDS011;30628;51.188;6.770;2022-08-25T00:49:15;4.80;;;2.88;;
44899;SDS011;30628;51.188;6.770;2022-08-25T00:51:50;3.15;;;2.85;;
44899;SDS011;30628;51.188;6.770;2022-08-25T00:54:23;3.10;;;2.80;;
44899;SDS011;30628;51.188;6.770;2022-08-25T00:56:56;3.10;;;2.78;;
44899;SDS011;30628;51.188;6.770;2022-08-25T00:59:24;2.63;;;2.42;;
44899;SDS011;30628;51.188;6.770;2022-08-25T01:01:52;3.75;;;2.78;;
44899;SDS011;30628;51.188;6.770;2022-08-25T01:04:19;3.28;;;2.90;;
44899;SDS011;30628;51.188;6.770;2022-08-25T01:06:46;3.38;;;2.58;;
44899;SDS011;30628;51.188;6.770;2022-08-25T01:09:13;2.85;;;2.60;;
44899;SDS011;30628;51.188;6.770;2022-08-25T01:11:41;3.50;;;3.20;;
44899;SDS011;30628;51.188;6.770;2022-08-25T01:14:10;4.30;;;2.65;;
44899;SDS011;30628;51.188;6.770;2022-08-25T01:16:39;3.15;;;2.95;;
44899;SDS011;30628;51.188;6.770;2022-08-25T01:19:08;3.65;;;2.50;;
44899;SDS011;30628;51.188;6.770;2022-08-25T01:21:44;4.95;;;2.65;;
44899;SDS011;30628;51.188;6.770;2022-08-25T01:24:49;3.75;;;2.53;;
44899;SDS011;30628;51.188;6.770;2022-08-25T01:27:25;3.05;;;2.80;;
44899;SDS011;30628;51.188;6.770;2022-08-25T01:29:51;3.08;;;2.88;;
44899;SDS011;30628;51.188;6.770;2022-08-25T01:32:18;4.00;;;2.55;;
44899;SDS011;30628;51.188;6.770;2022-08-25T01:34:44;3.70;;;2.85;;
44899;SDS011;30628;51.188;6.770;2022-08-25T01:37:11;2.65;;;2.45;;
44899;SDS011;30628;51.188;6.770;2022-08-25T01:39:40;2.60;;;2.40;;
44899;SDS011;30628;51.188;6.770;2022-08-25T01:44:40;3.13;;;2.83;;
44899;SDS011;30628;51.188;6.770;2022-08-25T01:47:08;4.15;;;2.72;;
44899;SDS011;30628;51.188;6.770;2022-08-25T01:49:35;3.67;;;2.40;;
44899;SDS011;30628;51.188;6.770;2022-08-25T01:52:06;3.30;;;2.58;;
44899;SDS011;30628;51.188;6.770;2022-08-25T01:54:39;3.88;;;2.60;;
44899;SDS011;30628;51.188;6.770;2022-08-25T01:57:05;3.53;;;2.90;;
44899;SDS011;30628;51.188;6.770;2022-08-25T01:59:31;2.72;;;2.53;;
44899;SDS011;30628;51.188;6.770;2022-08-25T02:01:58;3.10;;;2.67;;
44899;SDS011;30628;51.188;6.770;2022-08-25T02:04:24;3.25;;;2.80;;
44899;SDS011;30628;51.188;6.770;2022-08-25T02:06:51;3.50;;;3.03;;
44899;SDS011;30628;51.188;6.770;2022-08-25T02:09:17;3.08;;;2.78;;
44899;SDS011;30628;51.188;6.770;2022-08-25T02:11:44;3.80;;;2.92;;
44899;SDS011;30628;51.188;6.770;2022-08-25T02:14:13;7.10;;;2.70;;
44899;SDS011;30628;51.188;6.770;2022-08-25T02:16:41;3.00;;;2.78;;
44899;SDS011;30628;51.188;6.770;2022-08-25T02:19:10;3.40;;;2.88;;
44899;SDS011;30628;51.188;6.770;2022-08-25T02:21:37;4.10;;;2.97;;
44899;SDS011;30628;51.188;6.770;2022-08-25T02:24:04;3.17;;;2.50;;
44899;SDS011;30628;51.188;6.770;2022-08-25T02:26:31;4.22;;;2.78;;
44899;SDS011;30628;51.188;6.770;2022-08-25T02:28:57;3.17;;;2.67;;
44899;SDS011;30628;51.188;6.770;2022-08-25T02:31:24;2.70;;;2.50;;
44899;SDS011;30628;51.188;6.770;2022-08-25T02:33:51;4.25;;;2.78;;
44899;SDS011;30628;51.188;6.770;2022-08-25T02:36:18;4.25;;;2.72;;
44899;SDS011;30628;51.188;6.770;2022-08-25T02:38:45;2.80;;;2.60;;
44899;SDS011;30628;51.188;6.770;2022-08-25T02:41:14;3.03;;;2.47;;
44899;SDS011;30628;51.188;6.770;2022-08-25T02:43:47;3.45;;;2.88;;
44899;SDS011;30628;51.188;6.770;2022-08-25T02:46:14;2.30;;;2.10;;
44899;SDS011;30628;51.188;6.770;2022-08-25T02:48:42;2.70;;;2.50;;
44899;SDS011;30628;51.188;6.770;2022-08-25T02:51:09;2.70;;;2.50;;
44899;SDS011;30628;51.188;6.770;2022-08-25T02:53:37;2.70;;;2.50;;
44899;SDS011;30628;51.188;6.770;2022-08-25T02:56:06;2.92;;;2.03;;
44899;SDS011;30628;51.188;6.770;2022-08-25T02:58:34;2.35;;;2.00;;
44899;SDS011;30628;51.188;6.770;2022-08-25T03:01:01;2.53;;;2.33;;
44899;SDS011;30628;51.188;6.770;2022-08-25T03:03:28;2.58;;;2.30;;
44899;SDS011;30628;51.188;6.770;2022-08-25T03:05:54;3.55;;;2.58;;
44899;SDS011;30628;51.188;6.770;2022-08-25T03:08:22;3.88;;;2.20;;
44899;SDS011;30628;51.188;6.770;2022-08-25T03:10:48;2.58;;;2.38;;
44899;SDS011;30628;51.188;6.770;2022-08-25T03:13:15;3.05;;;2.75;;
44899;SDS011;30628;51.188;6.770;2022-08-25T03:15:42;3.92;;;2.90;;
44899;SDS011;30628;51.188;6.770;2022-08-25T03:18:08;3.15;;;2.90;;
44899;SDS011;30628;51.188;6.770;2022-08-25T03:20:36;3.47;;;2.80;;
44899;SDS011;30628;51.188;6.770;2022-08-25T03:23:04;2.40;;;2.22;;
44899;SDS011;30628;51.188;6.770;2022-08-25T03:25:31;2.40;;;2.20;;
44899;SDS011;30628;51.188;6.770;2022-08-25T03:28:17;3.05;;;2.47;;
44899;SDS011;30628;51.188;6.770;2022-08-25T03:30:44;3.08;;;2.88;;
44899;SDS011;30628;51.188;6.770;2022-08-25T03:33:10;3.30;;;3.00;;
44899;SDS011;30628;51.188;6.770;2022-08-25T03:35:37;4.50;;;3.00;;
44899;SDS011;30628;51.188;6.770;2022-08-25T03:38:03;4.90;;;2.80;;
44899;SDS011;30628;51.188;6.770;2022-08-25T03:40:30;3.08;;;2.85;;
44899;SDS011;30628;51.188;6.770;2022-08-25T03:42:57;2.60;;;2.40;;
44899;SDS011;30628;51.188;6.770;2022-08-25T03:45:23;3.55;;;2.83;;
44899;SDS011;30628;51.188;6.770;2022-08-25T03:47:51;3.33;;;3.05;;
44899;SDS011;30628;51.188;6.770;2022-08-25T03:50:18;3.15;;;2.95;;
44899;SDS011;30628;51.188;6.770;2022-08-25T03:52:49;3.45;;;3.10;;
44899;SDS011;30628;51.188;6.770;2022-08-25T03:55:18;3.90;;;2.65;;
44899;SDS011;30628;51.188;6.770;2022-08-25T03:57:45;4.25;;;3.17;;
44899;SDS011;30628;51.188;6.770;2022-08-25T04:00:12;3.60;;;3.28;;
44899;SDS011;30628;51.188;6.770;2022-08-25T04:02:38;3.17;;;2.88;;
44899;SDS011;30628;51.188;6.770;2022-08-25T04:05:06;3.75;;;2.78;;
44899;SDS011;30628;51.188;6.770;2022-08-25T04:07:33;4.45;;;2.92;;
44899;SDS011;30628;51.188;6.770;2022-08-25T04:09:59;2.72;;;2.42;;
44899;SDS011;30628;51.188;6.770;2022-08-25T04:12:25;4.05;;;2.50;;
44899;SDS011;30628;51.188;6.770;2022-08-25T04:14:51;4.78;;;3.13;;
44899;SDS011;30628;51.188;6.770;2022-08-25T04:17:18;3.78;;;3.42;;
44899;SDS011;30628;51.188;6.770;2022-08-25T04:19:44;2.70;;;2.50;;
44899;SDS011;30628;51.188;6.770;2022-08-25T04:22:10;2.50;;;2.30;;
44899;SDS011;30628;51.188;6.770;2022-08-25T04:24:36;3.72;;;2.95;;
44899;SDS011;30628;51.188;6.770;2022-08-25T04:27:02;4.70;;;3.55;;
44899;SDS011;30628;51.188;6.770;2022-08-25T04:29:29;3.67;;;2.70;;
44899;SDS011;30628;51.188;6.770;2022-08-25T04:31:55;2.95;;;2.72;;
44899;SDS011;30628;51.188;6.770;2022-08-25T04:34:22;3.42;;;2.97;;
44899;SDS011;30628;51.188;6.770;2022-08-25T04:36:50;4.30;;;3.50;;
44899;SDS011;30628;51.188;6.770;2022-08-25T04:39:17;3.75;;;3.30;;
44899;SDS011;30628;51.188;6.770;2022-08-25T04:41:45;3.35;;;3.10;;
44899;SDS011;30628;51.188;6.770;2022-08-25T04:44:12;3.72;;;2.90;;
44899;SDS011;30628;51.188;6.770;2022-08-25T04:46:39;3.42;;;3.13;;
44899;SDS011;30628;51.188;6.770;2022-08-25T04:49:05;2.83;;;2.63;;
44899;SDS011;30628;51.188;6.770;2022-08-25T04:51:32;3.47;;;3.08;;
44899;SDS011;30628;51.188;6.770;2022-08-25T04:54:01;3.50;;;3.20;;
44899;SDS011;30628;51.188;6.770;2022-08-25T04:56:30;3.05;;;2.75;;
44899;SDS011;30628;51.188;6.770;2022-08-25T04:59:00;4.13;;;3.45;;
44899;SDS011;30628;51.188;6.770;2022-08-25T05:01:29;6.38;;;3.67;;
44899;SDS011;30628;51.188;6.770;2022-08-25T05:03:57;3.70;;;3.13;;
44899;SDS011;30628;51.188;6.770;2022-08-25T05:06:25;3.90;;;3.50;;
44899;SDS011;30628;51.188;6.770;2022-08-25T05:08:53;3.05;;;2.80;;
44899;SDS011;30628;51.188;6.770;2022-08-25T05:11:20;2.83;;;2.60;;
44899;SDS011;30628;51.188;6.770;2022-08-25T05:13:47;4.05;;;3.53;;
44899;SDS011;30628;51.188;6.770;2022-08-25T05:16:15;4.25;;;3.30;;
44899;SDS011;30628;51.188;6.770;2022-08-25T05:18:42;3.67;;;3.28;;
44899;SDS011;30628;51.188;6.770;2022-08-25T05:21:10;4.38;;;3.97;;
44899;SDS011;30628;51.188;6.770;2022-08-25T05:23:39;5.40;;;3.70;;
44899;SDS011;30628;51.188;6.770;2022-08-25T05:26:10;3.53;;;3.22;;
44899;SDS011;30628;51.188;6.770;2022-08-25T05:28:41;3.58;;;3.15;;
44899;SDS011;30628;51.188;6.770;2022-08-25T05:31:08;3.80;;;3.22;;
44899;SDS011;30628;51.188;6.770;2022-08-25T05:33:36;4.22;;;3.40;;
44899;SDS011;30628;51.188;6.770;2022-08-25T05:36:04;3.92;;;3.30;;
44899;SDS011;30628;51.188;6.770;2022-08-25T05:38:31;3.35;;;3.05;;
44899;SDS011;30628;51.188;6.770;2022-08-25T05:40:58;4.78;;;3.72;;
44899;SDS011;30628;51.188;6.770;2022-08-25T05:43:26;4.25;;;3.85;;
44899;SDS011;30628;51.188;6.770;2022-08-25T05:45:53;3.95;;;3.47;;
44899;SDS011;30628;51.188;6.770;2022-08-25T05:48:20;2.70;;;2.50;;
44899;SDS011;30628;51.188;6.770;2022-08-25T05:50:53;4.07;;;3.30;;
44899;SDS011;30628;51.188;6.770;2022-08-25T05:53:25;3.35;;;3.10;;
44899;SDS011;30628;51.188;6.770;2022-08-25T05:55:53;3.85;;;3.55;;
44899;SDS011;30628;51.188;6.770;2022-08-25T05:58:20;4.10;;;3.08;;
44899;SDS011;30628;51.188;6.770;2022-08-25T06:00:48;6.47;;;4.05;;
44899;SDS011;30628;51.188;6.770;2022-08-25T06:03:15;5.28;;;2.70;;
44899;SDS011;30628;51.188;6.770;2022-08-25T06:05:42;3.50;;;3.20;;
44899;SDS011;30628;51.188;6.770;2022-08-25T06:08:08;3.92;;;3.47;;
44899;SDS011;30628;51.188;6.770;2022-08-25T06:10:34;6.68;;;4.07;;
44899;SDS011;30628;51.188;6.770;2022-08-25T06:13:01;4.03;;;3.67;;
44899;SDS011;30628;51.188;6.770;2022-08-25T06:15:29;3.80;;;3.25;;
44899;SDS011;30628;51.188;6.770;2022-08-25T06:17:56;4.72;;;3.70;;
44899;SDS011;30628;51.188;6.770;2022-08-25T06:20:27;3.63;;;3.30;;
44899;SDS011;30628;51.188;6.770;2022-08-25T06:22:55;4.25;;;3.80;;
44899;SDS011;30628;51.188;6.770;2022-08-25T06:25:23;4.70;;;3.72;;
44899;SDS011;30628;51.188;6.770;2022-08-25T06:27:52;3.10;;;2.90;;
44899;SDS011;30628;51.188;6.770;2022-08-25T06:30:20;4.30;;;3.47;;
44899;SDS011;30628;51.188;6.770;2022-08-25T06:32:48;4.03;;;3.60;;
44899;SDS011;30628;51.188;6.770;2022-08-25T06:35:15;5.63;;;4.07;;
44899;SDS011;30628;51.188;6.770;2022-08-25T06:37:43;3.47;;;2.65;;
44899;SDS011;30628;51.188;6.770;2022-08-25T06:40:10;4.90;;;3.83;;
44899;SDS011;30628;51.188;6.770;2022-08-25T06:42:38;5.70;;;3.83;;
44899;SDS011;30628;51.188;6.770;2022-08-25T06:45:05;4.72;;;4.30;;
44899;SDS011;30628;51.188;6.770;2022-08-25T06:47:31;2.85;;;2.63;;
44899;SDS011;30628;51.188;6.770;2022-08-25T06:49:58;5.07;;;3.67;;
44899;SDS011;30628;51.188;6.770;2022-08-25T06:52:24;5.18;;;3.80;;
44899;SDS011;30628;51.188;6.770;2022-08-25T06:54:50;5.85;;;3.88;;
44899;SDS011;30628;51.188;6.770;2022-08-25T06:57:17;3.88;;;3.58;;
44899;SDS011;30628;51.188;6.770;2022-08-25T06:59:44;4.28;;;3.90;;
44899;SDS011;30628;51.188;6.770;2022-08-25T07:02:10;4.40;;;3.20;;
44899;SDS011;30628;51.188;6.770;2022-08-25T07:04:36;4.43;;;3.30;;
44899;SDS011;30628;51.188;6.770;2022-08-25T07:07:03;3.30;;;3.03;;
44899;SDS011;30628;51.188;6.770;2022-08-25T07:09:29;5.05;;;4.53;;
44899;SDS011;30628;51.188;6.770;2022-08-25T07:11:56;4.22;;;3.22;;
44899;SDS011;30628;51.188;6.770;2022-08-25T07:14:24;4.30;;;3.58;;
44899;SDS011;30628;51.188;6.770;2022-08-25T07:16:50;4.90;;;4.18;;
44899;SDS011;30628;51.188;6.770;2022-08-25T07:19:16;4.57;;;3.75;;
44899;SDS011;30628;51.188;6.770;2022-08-25T07:21:45;4.38;;;3.97;;
44899;SDS011;30628;51.188;6.770;2022-08-25T07:24:13;7.05;;;4.22;;
44899;SDS011;30628;51.188;6.770;2022-08-25T07:26:41;3.90;;;3.60;;
44899;SDS011;30628;51.188;6.770;2022-08-25T07:29:12;5.00;;;3.72;;
44899;SDS011;30628;51.188;6.770;2022-08-25T07:31:42;4.97;;;4.03;;
44899;SDS011;30628;51.188;6.770;2022-08-25T07:34:09;5.57;;;4.10;;
44899;SDS011;30628;51.188;6.770;2022-08-25T07:36:54;3.67;;;3.33;;
44899;SDS011;30628;51.188;6.770;2022-08-25T07:39:21;6.93;;;3.67;;
44899;SDS011;30628;51.188;6.770;2022-08-25T07:41:49;5.68;;;4.47;;
44899;SDS011;30628;51.188;6.770;2022-08-25T07:44:16;3.50;;;3.25;;
44899;SDS011;30628;51.188;6.770;2022-08-25T07:46:42;6.03;;;4.60;;
44899;SDS011;30628;51.188;6.770;2022-08-25T07:49:10;4.45;;;3.63;;
44899;SDS011;30628;51.188;6.770;2022-08-25T07:51:36;4.15;;;3.60;;
44899;SDS011;30628;51.188;6.770;2022-08-25T07:54:03;5.18;;;4.68;;
44899;SDS011;30628;51.188;6.770;2022-08-25T07:56:30;5.93;;;4.32;;
44899;SDS011;30628;51.188;6.770;2022-08-25T07:58:56;3.70;;;3.40;;
44899;SDS011;30628;51.188;6.770;2022-08-25T08:01:23;4.95;;;4.45;;
44899;SDS011;30628;51.188;6.770;2022-08-25T08:03:50;4.65;;;4.25;;
44899;SDS011;30628;51.188;6.770;2022-08-25T08:06:18;7.10;;;4.72;;
44899;SDS011;30628;51.188;6.770;2022-08-25T08:08:47;4.25;;;3.80;;
44899;SDS011;30628;51.188;6.770;2022-08-25T08:11:15;4.50;;;4.10;;
44899;SDS011;30628;51.188;6.770;2022-08-25T08:13:53;4.63;;;4.20;;
44899;SDS011;30628;51.188;6.770;2022-08-25T08:16:21;6.68;;;5.20;;
44899;SDS011;30628;51.188;6.770;2022-08-25T08:18:49;4.93;;;4.32;;
44899;SDS011;30628;51.188;6.770;2022-08-25T08:21:16;3.97;;;3.55;;
44899;SDS011;30628;51.188;6.770;2022-08-25T08:23:51;5.10;;;4.60;;
44899;SDS011;30628;51.188;6.770;2022-08-25T08:26:19;5.30;;;4.85;;
44899;SDS011;30628;51.188;6.770;2022-08-25T08:28:46;6.43;;;4.35;;
44899;SDS011;30628;51.188;6.770;2022-08-25T08:31:13;6.22;;;4.72;;
44899;SDS011;30628;51.188;6.770;2022-08-25T08:33:44;4.93;;;4.43;;
44899;SDS011;30628;51.188;6.770;2022-08-25T08:36:12;4.07;;;3.70;;
44899;SDS011;30628;51.188;6.770;2022-08-25T08:38:39;5.25;;;4.20;;
44899;SDS011;30628;51.188;6.770;2022-08-25T08:52:45;3.70;;;3.45;;
44899;SDS011;30628;51.188;6.770;2022-08-25T08:55:19;4.32;;;3.92;;
44899;SDS011;30628;51.188;6.770;2022-08-25T08:57:49;3.42;;;3.13;;
44899;SDS011;30628;51.188;6.770;2022-08-25T09:00:20;5.00;;;4.50;;
44899;SDS011;30628;51.188;6.770;2022-08-25T09:02:49;4.38;;;4.05;;
44899;SDS011;30628;51.188;6.770;2022-08-25T09:05:27;4.80;;;4.40;;
44899;SDS011;30628;51.188;6.770;2022-08-25T09:07:56;5.00;;;3.92;;
44899;SDS011;30628;51.188;6.770;2022-08-25T09:10:27;4.90;;;4.22;;
44899;SDS011;30628;51.188;6.770;2022-08-25T09:15:53;6.65;;;4.25;;
44899;SDS011;30628;51.188;6.770;2022-08-25T09:21:42;4.47;;;3.67;;
44899;SDS011;30628;51.188;6.770;2022-08-25T09:30:18;4.45;;;4.10;;
44899;SDS011;30628;51.188;6.770;2022-08-25T09:32:50;4.65;;;4.22;;
44899;SDS011;30628;51.188;6.770;2022-08-25T09:35:26;7.07;;;4.72;;
44899;SDS011;30628;51.188;6.770;2022-08-25T09:38:01;7.28;;;4.65;;
44899;SDS011;30628;51.188;6.770;2022-08-25T09:40:33;4.72;;;4.32;;
44899;SDS011;30628;51.188;6.770;2022-08-25T09:43:02;5.10;;;4.70;;
44899;SDS011;30628;51.188;6.770;2022-08-25T09:48:03;4.80;;;4.40;;
44899;SDS011;30628;51.188;6.770;2022-08-25T09:50:55;4.97;;;4.47;;
44899;SDS011;30628;51.188;6.770;2022-08-25T09:53:25;4.70;;;4.30;;
44899;SDS011;30628;51.188;6.770;2022-08-25T09:56:00;3.72;;;3.42;;
44899;SDS011;30628;51.188;6.770;2022-08-25T09:58:30;3.75;;;3.40;;
44899;SDS011;30628;51.188;6.770;2022-08-25T10:01:30;4.20;;;3.80;;
44899;SDS011;30628;51.188;6.770;2022-08-25T10:03:56;4.10;;;3.80;;
44899;SDS011;30628;51.188;6.770;2022-08-25T10:06:49;3.58;;;3.28;;
44899;SDS011;30628;51.188;6.770;2022-08-25T10:09:32;4.20;;;3.78;;
44899;SDS011;30628;51.188;6.770;2022-08-25T10:12:13;6.00;;;3.80;;
44899;SDS011;30628;51.188;6.770;2022-08-25T10:14:49;4.47;;;3.65;;
44899;SDS011;30628;51.188;6.770;2022-08-25T10:17:32;3.85;;;3.55;;
44899;SDS011;30628;51.188;6.770;2022-08-25T10:22:40;4.45;;;3.70;;
44899;SDS011;30628;51.188;6.770;2022-08-25T10:25:08;3.05;;;2.85;;
44899;SDS011;30628;51.188;6.770;2022-08-25T10:27:45;3.92;;;3.33;;
44899;SDS011;30628;51.188;6.770;2022-08-25T10:30:36;4.07;;;3.75;;
44899;SDS011;30628;51.188;6.770;2022-08-25T10:33:35;4.03;;;3.70;;
44899;SDS011;30628;51.188;6.770;2022-08-25T10:36:13;4.63;;;4.00;;
44899;SDS011;30628;51.188;6.770;2022-08-25T10:38:59;4.60;;;4.20;;
44899;SDS011;30628;51.188;6.770;2022-08-25T10:49:47;4.80;;;3.30;;
44899;SDS011;30628;51.188;6.770;2022-08-25T10:52:29;3.67;;;3.38;;
44899;SDS011;30628;51.188;6.770;2022-08-25T10:57:48;4.00;;;3.58;;
44899;SDS011;30628;51.188;6.770;2022-08-25T11:00:33;3.30;;;3.00;;
44899;SDS011;30628;51.188;6.770;2022-08-25T11:05:46;3.72;;;3.42;;
44899;SDS011;30628;51.188;6.770;2022-08-25T11:14:02;6.72;;;4.10;;
44899;SDS011;30628;51.188;6.770;2022-08-25T11:17:00;3.70;;;3.40;;
44899;SDS011;30628;51.188;6.770;2022-08-25T11:19:29;4.00;;;3.60;;
44899;SDS011;30628;51.188;6.770;2022-08-25T11:25:25;4.35;;;4.00;;
44899;SDS011;30628;51.188;6.770;2022-08-25T11:30:40;3.85;;;3.20;;
44899;SDS011;30628;51.188;6.770;2022-08-25T11:33:18;4.22;;;3.88;;
44899;SDS011;30628;51.188;6.770;2022-08-25T11:36:28;3.90;;;3.60;;
44899;SDS011;30628;51.188;6.770;2022-08-25T11:46:38;3.10;;;2.90;;
44899;SDS011;30628;51.188;6.770;2022-08-25T11:55:27;3.42;;;3.13;;
44899;SDS011;30628;51.188;6.770;2022-08-25T11:59:03;6.20;;;3.42;;
44899;SDS011;30628;51.188;6.770;2022-08-25T12:00:59;3.35;;;3.08;;
44899;SDS011;30628;51.188;6.770;2022-08-25T12:36:24;3.10;;;2.90;;
44899;SDS011;30628;51.188;6.770;2022-08-25T12:38:27;2.80;;;2.60;;
44899;SDS011;30628;51.188;6.770;2022-08-25T12:41:06;3.25;;;3.05;;
44899;SDS011;30628;51.188;6.770;2022-08-25T12:43:34;3.72;;;3.35;;
44899;SDS011;30628;51.188;6.770;2022-08-25T12:48:53;3.25;;;3.05;;
44899;SDS011;30628;51.188;6.770;2022-08-25T12:51:21;4.20;;;3.65;;
44899;SDS011;30628;51.188;6.770;2022-08-25T12:53:50;4.30;;;3.90;;
44899;SDS011;30628;51.188;6.770;2022-08-25T12:56:41;3.05;;;2.85;;
44899;SDS011;30628;51.188;6.770;2022-08-25T12:59:21;4.28;;;3.33;;
44899;SDS011;30628;51.188;6.770;2022-08-25T13:07:33;4.43;;;4.10;;
44899;SDS011;30628;51.188;6.770;2022-08-25T13:13:32;4.03;;;3.72;;
44899;SDS011;30628;51.188;6.770;2022-08-25T13:16:17;4.38;;;3.42;;
44899;SDS011;30628;51.188;6.770;2022-08-25T13:18:50;4.15;;;3.75;;
44899;SDS011;30628;51.188;6.770;2022-08-25T13:21:22;3.92;;;3.60;;
44899;SDS011;30628;51.188;6.770;2022-08-25T13:23:59;3.60;;;3.30;;
44899;SDS011;30628;51.188;6.770;2022-08-25T13:26:27;3.85;;;3.55;;
44899;SDS011;30628;51.188;6.770;2022-08-25T13:29:21;3.25;;;3.05;;
44899;SDS011;30628;51.188;6.770;2022-08-25T13:31:52;5.30;;;3.88;;
44899;SDS011;30628;51.188;6.770;2022-08-25T13:34:24;4.22;;;3.65;;
44899;SDS011;30628;51.188;6.770;2022-08-25T13:36:55;4.30;;;3.75;;
44899;SDS011;30628;51.188;6.770;2022-08-25T13:39:39;3.40;;;3.10;;
44899;SDS011;30628;51.188;6.770;2022-08-25T13:42:11;4.43;;;3.42;;
44899;SDS011;30628;51.188;6.770;2022-08-25T13:44:40;3.28;;;3.08;;
44899;SDS011;30628;51.188;6.770;2022-08-25T13:47:14;3.35;;;3.08;;
44899;SDS011;30628;51.188;6.770;2022-08-25T13:49:43;3.38;;;3.05;;
44899;SDS011;30628;51.188;6.770;2022-08-25T13:52:22;3.38;;;3.17;;
44899;SDS011;30628;51.188;6.770;2022-08-25T13:54:55;4.43;;;4.03;;
44899;SDS011;30628;51.188;6.770;2022-08-25T13:57:26;3.25;;;3.05;;
44899;SDS011;30628;51.188;6.770;2022-08-25T13:59:56;3.50;;;3.15;;
44899;SDS011;30628;51.188;6.770;2022-08-25T14:02:43;4.18;;;3.55;;
44899;SDS011;30628;51.188;6.770;2022-08-25T14:05:16;4.00;;;3.70;;
44899;SDS011;30628;51.188;6.770;2022-08-25T14:08:06;3.72;;;3.45;;
44899;SDS011;30628;51.188;6.770;2022-08-25T14:11:00;4.25;;;3.50;;
44899;SDS011;30628;51.188;6.770;2022-08-25T14:13:41;3.45;;;3.15;;
44899;SDS011;30628;51.188;6.770;2022-08-25T14:16:20;3.20;;;3.00;;
44899;SDS011;30628;51.188;6.770;2022-08-25T14:18:49;3.60;;;3.30;;
44899;SDS011;30628;51.188;6.770;2022-08-25T14:21:28;3.08;;;2.88;;
44899;SDS011;30628;51.188;6.770;2022-08-25T14:23:56;2.95;;;2.75;;
44899;SDS011;30628;51.188;6.770;2022-08-25T14:26:23;4.00;;;3.58;;
44899;SDS011;30628;51.188;6.770;2022-08-25T14:28:49;4.30;;;4.00;;
44899;SDS011;30628;51.188;6.770;2022-08-25T14:31:19;4.50;;;4.10;;
44899;SDS011;30628;51.188;6.770;2022-08-25T14:33:57;4.47;;;4.07;;
44899;SDS011;30628;51.188;6.770;2022-08-25T14:36:24;4.63;;;4.22;;
44899;SDS011;30628;51.188;6.770;2022-08-25T14:38:50;3.45;;;3.25;;
44899;SDS011;30628;51.188;6.770;2022-08-25T14:41:18;4.68;;;4.07;;
44899;SDS011;30628;51.188;6.770;2022-08-25T14:43:46;4.20;;;3.80;;
44899;SDS011;30628;51.188;6.770;2022-08-25T14:46:20;3.88;;;3.58;;
44899;SDS011;30628;51.188;6.770;2022-08-25T14:48:50;3.47;;;3.22;;
44899;SDS011;30628;51.188;6.770;2022-08-25T14:51:19;3.67;;;3.38;;
44899;SDS011;30628;51.188;6.770;2022-08-25T14:53:47;3.83;;;3.53;;
44899;SDS011;30628;51.188;6.770;2022-08-25T14:56:14;4.45;;;4.07;;
44899;SDS011;30628;51.188;6.770;2022-08-25T14:58:41;4.05;;;3.75;;
44899;SDS011;30628;51.188;6.770;2022-08-25T15:01:12;4.30;;;3.90;;
44899;SDS011;30628;51.188;6.770;2022-08-25T15:03:41;4.70;;;4.25;;
44899;SDS011;30628;51.188;6.770;2022-08-25T15:06:13;5.28;;;4.75;;
44899;SDS011;30628;51.188;6.770;2022-08-25T15:08:42;3.83;;;3.50;;
44899;SDS011;30628;51.188;6.770;2022-08-25T15:11:28;3.42;;;3.22;;
44899;SDS011;30628;51.188;6.770;2022-08-25T15:13:55;5.53;;;4.25;;
44899;SDS011;30628;51.188;6.770;2022-08-25T15:16:23;5.47;;;4.20;;
44899;SDS011;30628;51.188;6.770;2022-08-25T15:18:57;3.90;;;3.60;;
44899;SDS011;30628;51.188;6.770;2022-08-25T15:21:24;4.35;;;3.95;;
44899;SDS011;30628;51.188;6.770;2022-08-25T15:23:50;3.50;;;3.30;;
44899;SDS011;30628;51.188;6.770;2022-08-25T15:26:17;3.70;;;3.40;;
44899;SDS011;30628;51.188;6.770;2022-08-25T15:28:45;5.97;;;3.78;;
44899;SDS011;30628;51.188;6.770;2022-08-25T15:31:14;5.65;;;3.80;;
44899;SDS011;30628;51.188;6.770;2022-08-25T15:33:41;4.25;;;3.90;;
44899;SDS011;30628;51.188;6.770;2022-08-25T15:36:08;3.78;;;3.40;;
44899;SDS011;30628;51.188;6.770;2022-08-25T15:38:37;4.30;;;3.90;;
44899;SDS011;30628;51.188;6.770;2022-08-25T15:41:04;7.32;;;4.25;;
44899;SDS011;30628;51.188;6.770;2022-08-25T15:43:32;5.43;;;4.10;;
44899;SDS011;30628;51.188;6.770;2022-08-25T15:45:59;3.97;;;3.67;;
44899;SDS011;30628;51.188;6.770;2022-08-25T15:48:26;4.50;;;4.03;;
44899;SDS011;30628;51.188;6.770;2022-08-25T15:50:52;4.20;;;3.88;;
44899;SDS011;30628;51.188;6.770;2022-08-25T15:53:20;4.93;;;4.03;;
44899;SDS011;30628;51.188;6.770;2022-08-25T15:55:47;4.15;;;3.85;;
44899;SDS011;30628;51.188;6.770;2022-08-25T15:58:14;4.07;;;3.78;;
44899;SDS011;30628;51.188;6.770;2022-08-25T16:00:41;4.78;;;3.78;;
44899;SDS011;30628;51.188;6.770;2022-08-25T16:03:09;4.57;;;3.80;;
44899;SDS011;30628;51.188;6.770;2022-08-25T16:05:36;4.03;;;3.70;;
44899;SDS011;30628;51.188;6.770;2022-08-25T16:08:04;4.22;;;3.85;;
44899;SDS011;30628;51.188;6.770;2022-08-25T16:10:40;3.70;;;3.40;;
44899;SDS011;30628;51.188;6.770;2022-08-25T16:13:07;3.60;;;3.28;;
44899;SDS011;30628;51.188;6.770;2022-08-25T16:15:35;3.78;;;3.47;;
44899;SDS011;30628;51.188;6.770;2022-08-25T16:18:02;4.93;;;3.70;;
44899;SDS011;30628;51.188;6.770;2022-08-25T16:20:30;3.78;;;3.47;;
44899;SDS011;30628;51.188;6.770;2022-08-25T16:22:58;4.00;;;3.70;;
44899;SDS011;30628;51.188;6.770;2022-08-25T16:25:27;4.65;;;4.25;;
44899;SDS011;30628;51.188;6.770;2022-08-25T16:27:54;4.25;;;3.85;;
44899;SDS011;30628;51.188;6.770;2022-08-25T16:30:20;4.72;;;4.30;;
44899;SDS011;30628;51.188;6.770;2022-08-25T16:32:46;5.00;;;4.10;;
44899;SDS011;30628;51.188;6.770;2022-08-25T16:35:13;4.20;;;3.90;;
44899;SDS011;30628;51.188;6.770;2022-08-25T16:37:39;3.50;;;3.20;;
44899;SDS011;30628;51.188;6.770;2022-08-25T16:40:06;4.43;;;3.72;;
44899;SDS011;30628;51.188;6.770;2022-08-25T16:42:33;3.83;;;3.55;;
44899;SDS011;30628;51.188;6.770;2022-08-25T16:44:59;3.85;;;3.55;;
44899;SDS011;30628;51.188;6.770;2022-08-25T16:47:25;5.53;;;3.35;;
44899;SDS011;30628;51.188;6.770;2022-08-25T16:49:51;5.78;;;4.00;;
44899;SDS011;30628;51.188;6.770;2022-08-25T16:52:17;5.57;;;3.80;;
44899;SDS011;30628;51.188;6.770;2022-08-25T16:55:02;4.43;;;3.70;;
44899;SDS011;30628;51.188;6.770;2022-08-25T16:57:38;5.03;;;3.80;;
44899;SDS011;30628;51.188;6.770;2022-08-25T17:00:06;4.60;;;3.80;;
44899;SDS011;30628;51.188;6.770;2022-08-25T17:02:37;4.15;;;3.50;;